createdAt,value
2023-04-09T00:01:50.916Z,283.00
2023-04-09T00:04:19.276Z,278.40
2023-04-09T00:06:47.631Z,293.20
2023-04-09T00:09:16.398Z,293.40
2023-04-09T00:11:44.757Z,285.70
2023-04-09T00:14:13.052Z,294.20
2023-04-09T00:16:41.479Z,305.50
2023-04-09T00:19:09.893Z,301.20
2023-04-09T00:21:38.327Z,293.30
2023-04-09T00:24:07.040Z,301.40
2023-04-09T00:26:35.706Z,280.60
2023-04-09T00:29:04.370Z,287.60
2023-04-09T00:31:33.434Z,299.20
2023-04-09T00:34:01.864Z,300.10
2023-04-09T00:36:31.181Z,301.40
2023-04-09T00:38:59.598Z,294.20
2023-04-09T00:41:28.690Z,279.40
2023-04-09T00:43:57.900Z,263.00
2023-04-09T00:46:26.604Z,285.00
2023-04-09T00:48:55.215Z,265.60
2023-04-09T00:51:23.692Z,277.10
2023-04-09T00:53:53.883Z,280.20
2023-04-09T00:56:23.826Z,277.00
2023-04-09T00:58:52.504Z,269.20
2023-04-09T01:01:21.581Z,260.60
2023-04-09T01:03:50.208Z,276.10
2023-04-09T01:06:27.270Z,264.90
2023-04-09T01:09:06.608Z,278.50
2023-04-09T01:11:59.849Z,259.30
2023-04-09T01:14:38.184Z,269.00
2023-04-09T01:17:22.264Z,268.10
2023-04-09T01:20:06.643Z,252.80
2023-04-09T01:22:56.832Z,252.80
2023-04-09T01:26:02.534Z,253.30
2023-04-09T01:28:47.042Z,257.00
2023-04-09T01:31:21.851Z,280.80
2023-04-09T01:33:52.748Z,269.10
2023-04-09T01:36:22.187Z,269.30
2023-04-09T01:38:52.623Z,262.10
2023-04-09T01:41:23.288Z,259.90
2023-04-09T01:43:52.403Z,260.40
2023-04-09T01:46:23.123Z,266.10
2023-04-09T01:48:52.746Z,263.50
2023-04-09T01:51:21.691Z,274.90
2023-04-09T01:53:50.055Z,261.60
2023-04-09T01:56:18.324Z,261.20
2023-04-09T01:58:46.633Z,263.50
2023-04-09T02:01:25.107Z,243.80
2023-04-09T02:04:07.296Z,263.60
2023-04-09T02:06:53.794Z,254.20
2023-04-09T02:09:24.789Z,243.70
2023-04-09T02:11:54.154Z,252.60
2023-04-09T02:14:25.401Z,250.40
2023-04-09T02:16:54.030Z,262.30
2023-04-09T02:19:22.273Z,261.50
2023-04-09T02:21:50.543Z,256.90
2023-04-09T02:24:18.906Z,229.70
2023-04-09T02:26:47.118Z,247.20
2023-04-09T02:29:15.523Z,250.00
2023-04-09T02:31:45.470Z,240.10
2023-04-09T02:34:14.054Z,249.00
2023-04-09T02:36:42.429Z,240.00
2023-04-09T02:39:11.315Z,241.10
2023-04-09T02:41:39.653Z,264.10
2023-04-09T02:44:08.123Z,257.30
2023-04-09T02:46:36.684Z,254.60
2023-04-09T02:49:05.233Z,247.70
2023-04-09T02:51:36.584Z,256.80
2023-04-09T02:54:05.259Z,251.10
2023-04-09T02:56:33.859Z,261.50
2023-04-09T02:59:02.437Z,265.50
2023-04-09T03:01:31.210Z,261.20
2023-04-09T03:04:01.886Z,247.00
2023-04-09T03:06:31.212Z,251.40
2023-04-09T03:08:59.832Z,252.50
2023-04-09T03:11:28.860Z,249.10
2023-04-09T03:13:57.779Z,251.60
2023-04-09T03:16:26.670Z,258.40
2023-04-09T03:18:55.114Z,250.60
2023-04-09T03:21:23.911Z,245.00
2023-04-09T03:23:52.483Z,253.40
2023-04-09T03:26:21.458Z,254.60
2023-04-09T03:28:50.930Z,266.30
2023-04-09T03:31:19.840Z,257.60
2023-04-09T03:33:48.484Z,251.20
2023-04-09T03:36:17.888Z,244.70
2023-04-09T03:39:04.391Z,262.00
2023-04-09T03:41:42.351Z,246.90
2023-04-09T03:44:14.309Z,264.20
2023-04-09T03:46:55.031Z,251.10
2023-04-09T03:49:24.016Z,246.70
2023-04-09T03:51:52.352Z,252.60
2023-04-09T03:54:21.376Z,254.00
2023-04-09T03:56:51.127Z,236.20
2023-04-09T03:59:23.251Z,270.00
2023-04-09T04:01:51.912Z,265.60
2023-04-09T04:04:23.589Z,253.30
2023-04-09T04:06:56.646Z,264.20
2023-04-09T04:09:34.611Z,242.00
2023-04-09T04:12:09.536Z,241.60
2023-04-09T04:15:10.386Z,224.70
2023-04-09T04:17:43.489Z,227.70
2023-04-09T04:20:19.692Z,215.50
2023-04-09T04:23:18.183Z,231.80
2023-04-09T04:25:54.881Z,234.10
2023-04-09T04:28:31.105Z,259.30
2023-04-09T04:31:00.556Z,240.60
2023-04-09T04:33:30.116Z,255.50
2023-04-09T04:36:10.117Z,276.50
2023-04-09T04:38:42.881Z,260.20
2023-04-09T04:41:19.051Z,248.80
2023-04-09T04:43:53.327Z,259.60
2023-04-09T04:46:24.131Z,259.20
2023-04-09T04:48:52.967Z,239.30
2023-04-09T04:51:23.083Z,245.30
2023-04-09T04:54:07.675Z,238.70
2023-04-09T04:56:36.052Z,260.50
2023-04-09T04:59:13.264Z,249.30
2023-04-09T05:01:56.635Z,225.90
2023-04-09T05:04:25.989Z,268.90
2023-04-09T05:06:55.254Z,256.30
2023-04-09T05:09:24.348Z,267.50
2023-04-09T05:12:06.103Z,250.60
2023-04-09T05:14:35.343Z,253.90
2023-04-09T05:17:04.253Z,280.70
2023-04-09T05:19:41.648Z,263.00
2023-04-09T05:22:11.220Z,252.60
2023-04-09T05:24:39.718Z,271.90
2023-04-09T05:27:08.200Z,237.40
2023-04-09T05:29:39.783Z,249.90
2023-04-09T05:32:09.771Z,263.30
2023-04-09T05:34:39.747Z,279.70
2023-04-09T05:37:08.689Z,264.50
2023-04-09T05:39:37.024Z,278.40
2023-04-09T05:42:05.661Z,249.20
2023-04-09T05:44:49.763Z,283.60
2023-04-09T05:47:22.222Z,278.60
2023-04-09T05:50:00.800Z,265.20
2023-04-09T05:52:29.325Z,243.90
2023-04-09T05:54:58.453Z,271.00
2023-04-09T05:57:34.095Z,285.10
2023-04-09T06:00:07.013Z,266.20
2023-04-09T06:02:45.762Z,259.60
2023-04-09T06:05:14.783Z,278.90
2023-04-09T06:07:43.270Z,264.40
2023-04-09T06:10:11.862Z,269.50
2023-04-09T06:12:40.812Z,277.70
2023-04-09T06:15:11.028Z,269.70
2023-04-09T06:17:39.303Z,266.70
2023-04-09T06:20:08.584Z,254.00
2023-04-09T06:22:37.605Z,269.00
2023-04-09T06:25:06.891Z,276.80
2023-04-09T06:27:35.609Z,279.70
2023-04-09T06:30:04.265Z,279.30
2023-04-09T06:32:37.657Z,284.90
2023-04-09T06:35:11.955Z,274.10
2023-04-09T06:37:40.586Z,276.70
2023-04-09T06:40:09.859Z,259.30
2023-04-09T06:42:38.417Z,265.50
2023-04-09T06:45:19.655Z,261.70
2023-04-09T06:47:48.558Z,261.10
2023-04-09T06:50:17.095Z,250.60
2023-04-09T06:52:45.670Z,253.20
2023-04-09T06:55:14.495Z,264.60
2023-04-09T06:57:42.978Z,256.60
2023-04-09T07:00:12.383Z,268.50
2023-04-09T07:02:40.999Z,270.80
2023-04-09T07:05:10.268Z,271.20
2023-04-09T07:07:39.038Z,249.20
2023-04-09T07:10:08.175Z,275.20
2023-04-09T07:12:36.534Z,268.60
2023-04-09T07:15:10.212Z,285.80
2023-04-09T07:17:38.752Z,274.60
2023-04-09T07:20:07.718Z,297.30
2023-04-09T07:22:36.605Z,269.60
2023-04-09T07:25:05.777Z,272.10
2023-04-09T07:27:34.071Z,253.60
2023-04-09T07:30:03.491Z,277.10
2023-04-09T07:32:31.793Z,258.90
2023-04-09T07:35:00.235Z,276.20
2023-04-09T07:37:28.715Z,280.50
2023-04-09T07:39:57.384Z,273.40
2023-04-09T07:42:27.646Z,280.80
2023-04-09T07:44:56.933Z,244.00
2023-04-09T07:47:25.534Z,240.00
2023-04-09T07:49:54.100Z,239.50
2023-04-09T07:52:22.644Z,229.80
2023-04-09T07:54:51.492Z,212.30
2023-04-09T07:57:19.867Z,246.10
2023-04-09T07:59:48.645Z,235.40
2023-04-09T08:02:17.983Z,236.90
2023-04-09T08:04:47.225Z,226.50
2023-04-09T08:07:15.899Z,241.80
2023-04-09T08:09:44.305Z,243.00
2023-04-09T08:12:12.668Z,239.90
2023-04-09T08:14:41.545Z,231.70
2023-04-09T08:17:09.826Z,237.00
2023-04-09T08:19:40.468Z,235.10
2023-04-09T08:22:10.099Z,265.40
2023-04-09T08:24:40.435Z,232.80
2023-04-09T08:27:08.815Z,213.80
2023-04-09T08:29:38.859Z,243.10
2023-04-09T08:32:07.336Z,241.50
2023-04-09T08:34:35.757Z,240.10
2023-04-09T08:37:03.936Z,230.20
2023-04-09T08:39:32.145Z,218.90
2023-04-09T08:42:03.831Z,212.70
2023-04-09T08:48:11.260Z,207.50
2023-04-09T08:50:39.654Z,233.80
2023-04-09T08:53:09.928Z,213.40
2023-04-09T08:55:38.688Z,208.50
2023-04-09T08:58:07.731Z,224.70
2023-04-09T09:00:36.078Z,238.80
2023-04-09T09:03:14.846Z,239.50
2023-04-09T09:05:46.219Z,227.90
2023-04-09T09:08:26.241Z,205.30
2023-04-09T09:10:54.508Z,213.70
2023-04-09T09:13:27.642Z,213.60
2023-04-09T09:16:14.093Z,204.80
2023-04-09T09:18:44.739Z,220.70
2023-04-09T09:21:15.474Z,217.00
2023-04-09T09:23:44.728Z,206.00
2023-04-09T09:26:18.256Z,209.90
2023-04-09T09:28:49.633Z,208.80
2023-04-09T09:31:20.713Z,199.80
2023-04-09T09:33:50.858Z,187.80
2023-04-09T09:36:35.689Z,200.70
2023-04-09T09:39:05.572Z,212.80
2023-04-09T09:41:33.865Z,200.60
2023-04-09T09:44:04.923Z,204.50
2023-04-09T09:46:42.620Z,204.10
2023-04-09T09:49:10.874Z,202.40
2023-04-09T09:51:41.605Z,188.90
2023-04-09T09:54:13.302Z,180.60
2023-04-09T09:56:44.166Z,195.90
2023-04-09T09:59:27.225Z,164.10
2023-04-09T10:02:23.155Z,157.60
2023-04-09T10:04:53.301Z,128.20
2023-04-09T10:07:22.785Z,140.40
2023-04-09T10:09:53.307Z,155.50
2023-04-09T10:12:27.372Z,144.90
2023-04-09T10:14:56.840Z,145.70
2023-04-09T10:17:25.136Z,129.00
2023-04-09T10:20:17.192Z,134.60
2023-04-09T10:22:50.419Z,142.00
2023-04-09T10:25:19.250Z,124.20
2023-04-09T10:28:00.225Z,129.90
2023-04-09T10:30:36.189Z,142.60
2023-04-09T10:33:16.788Z,125.70
2023-04-09T10:35:47.403Z,113.60
2023-04-09T10:38:15.839Z,120.10
2023-04-09T10:40:53.503Z,122.40
2023-04-09T10:43:22.463Z,135.60
2023-04-09T10:45:53.730Z,130.30
2023-04-09T10:48:26.311Z,129.60
2023-04-09T10:50:55.913Z,129.20
2023-04-09T10:53:26.127Z,129.20
2023-04-09T10:55:55.429Z,127.60
2023-04-09T10:58:23.662Z,121.60
2023-04-09T11:00:54.218Z,119.60
2023-04-09T11:03:31.662Z,135.40
2023-04-09T11:06:03.405Z,132.60
2023-04-09T11:08:33.885Z,122.40
2023-04-09T11:11:03.804Z,130.90
2023-04-09T11:13:45.009Z,123.20
2023-04-09T11:16:24.726Z,115.10
2023-04-09T11:18:56.378Z,120.90
2023-04-09T11:21:31.569Z,116.60
2023-04-09T11:23:59.861Z,119.60
2023-04-09T11:26:36.693Z,114.50
2023-04-09T11:29:08.333Z,119.10
2023-04-09T11:31:37.485Z,114.40
2023-04-09T11:34:05.877Z,119.40
2023-04-09T11:36:35.143Z,112.00
2023-04-09T11:39:05.893Z,110.70
2023-04-09T11:41:39.137Z,109.00
2023-04-09T11:44:11.089Z,100.80
2023-04-09T11:46:42.223Z,103.70
2023-04-09T11:49:14.006Z,99.70
2023-04-09T11:51:43.066Z,96.40
2023-04-09T11:54:12.611Z,100.20
2023-04-09T11:56:41.175Z,94.90
2023-04-09T11:59:10.245Z,93.40
2023-04-09T12:01:38.849Z,89.20
2023-04-09T12:04:12.193Z,90.80
2023-04-09T12:06:42.931Z,81.30
2023-04-09T12:09:14.405Z,89.90
2023-04-09T12:11:49.191Z,86.30
2023-04-09T12:14:19.354Z,82.00
2023-04-09T12:16:54.186Z,84.90
2023-04-09T12:19:25.929Z,76.60
2023-04-09T12:21:58.593Z,72.80
2023-04-09T12:24:28.258Z,81.00
2023-04-09T12:26:57.736Z,68.20
2023-04-09T12:29:27.163Z,79.10
2023-04-09T12:31:56.940Z,84.90
2023-04-09T12:34:27.534Z,80.10
2023-04-09T12:36:56.296Z,87.90
2023-04-09T12:39:24.778Z,86.10
2023-04-09T12:41:54.664Z,71.30
2023-04-09T12:44:23.110Z,63.00
2023-04-09T12:46:51.647Z,69.80
2023-04-09T12:49:20.252Z,66.90
2023-04-09T12:51:48.611Z,69.10
2023-04-09T12:54:18.086Z,63.00
2023-04-09T12:56:46.823Z,60.30
2023-04-09T12:59:15.634Z,61.40
2023-04-09T13:01:44.484Z,60.80
2023-04-09T13:04:13.085Z,60.30
2023-04-09T13:06:41.838Z,57.00
2023-04-09T13:09:10.511Z,59.60
2023-04-09T13:11:39.064Z,53.10
2023-04-09T13:14:07.583Z,58.30
2023-04-09T13:16:36.043Z,58.90
2023-04-09T13:19:04.308Z,58.10
2023-04-09T13:21:32.618Z,63.00
2023-04-09T13:24:00.981Z,55.50
2023-04-09T13:26:29.136Z,59.70
2023-04-09T13:28:57.781Z,60.80
2023-04-09T13:31:28.178Z,54.80
2023-04-09T13:33:57.918Z,55.90
2023-04-09T13:36:28.124Z,54.50
2023-04-09T13:38:56.722Z,53.20
2023-04-09T13:41:29.801Z,50.10
2023-04-09T13:43:59.973Z,49.60
2023-04-09T13:46:28.436Z,55.10
2023-04-09T13:48:56.812Z,53.10
2023-04-09T13:51:27.885Z,47.10
2023-04-09T13:53:59.877Z,55.30
2023-04-09T13:56:29.895Z,53.40
2023-04-09T13:58:58.429Z,46.20
2023-04-09T14:01:29.629Z,48.10
2023-04-09T14:04:16.274Z,52.60
2023-04-09T14:06:44.978Z,45.60
2023-04-09T14:09:13.517Z,42.70
2023-04-09T14:11:43.325Z,44.50
2023-04-09T14:14:15.312Z,46.40
2023-04-09T14:16:45.376Z,40.00
2023-04-09T14:19:13.917Z,46.50
2023-04-09T14:21:42.279Z,42.90
2023-04-09T14:24:12.828Z,41.20
2023-04-09T14:26:42.051Z,44.70
2023-04-09T14:29:12.382Z,41.90
2023-04-09T14:31:43.068Z,33.30
2023-04-09T14:34:11.718Z,37.10
2023-04-09T14:36:44.636Z,37.70
2023-04-09T14:39:12.933Z,35.70
2023-04-09T14:41:41.814Z,38.30
2023-04-09T14:44:10.070Z,33.70
2023-04-09T14:46:38.549Z,31.80
2023-04-09T14:49:07.136Z,32.60
2023-04-09T14:51:35.665Z,29.60
2023-04-09T14:54:04.323Z,28.70
2023-04-09T14:56:32.696Z,30.70
2023-04-09T14:59:07.685Z,30.10
2023-04-09T15:01:40.062Z,30.70
2023-04-09T15:04:08.760Z,30.40
2023-04-09T15:06:37.494Z,28.60
2023-04-09T15:09:05.856Z,29.30
2023-04-09T15:11:36.440Z,28.60
2023-04-09T15:14:04.731Z,30.40
2023-04-09T15:16:37.559Z,30.10
2023-04-09T15:19:09.177Z,28.90
2023-04-09T15:21:37.864Z,27.10
2023-04-09T15:24:06.380Z,25.40
2023-04-09T15:26:35.036Z,28.60
2023-04-09T15:29:07.354Z,28.30
2023-04-09T15:31:36.528Z,28.30
2023-04-09T15:34:05.363Z,27.50
2023-04-09T15:36:34.620Z,29.40
2023-04-09T15:39:06.981Z,25.60
2023-04-09T15:41:35.546Z,29.30
2023-04-09T15:44:05.035Z,24.40
2023-04-09T15:46:33.763Z,29.50
2023-04-09T15:49:02.100Z,30.40
2023-04-09T15:51:31.410Z,26.90
2023-04-09T15:54:00.423Z,28.80
2023-04-09T15:56:29.495Z,25.80
2023-04-09T15:58:59.142Z,29.50
2023-04-09T16:01:28.615Z,30.30
2023-04-09T16:03:57.473Z,32.00
2023-04-09T16:06:26.342Z,28.40
2023-04-09T16:08:55.221Z,30.00
2023-04-09T16:11:24.077Z,30.10
2023-04-09T16:13:52.591Z,29.20
2023-04-09T16:16:21.128Z,31.40
2023-04-09T16:18:49.547Z,28.40
2023-04-09T16:21:18.105Z,29.40
2023-04-09T16:23:46.851Z,26.30
2023-04-09T16:26:15.674Z,33.70
2023-04-09T16:28:44.814Z,32.80
2023-04-09T16:31:14.697Z,34.20
2023-04-09T16:33:43.172Z,34.60
2023-04-09T16:36:11.960Z,32.50
2023-04-09T16:38:43.208Z,34.70
2023-04-09T16:41:11.806Z,34.50
2023-04-09T16:43:40.173Z,32.40
2023-04-09T16:46:09.038Z,29.60
2023-04-09T16:48:41.972Z,32.40
2023-04-09T16:51:10.748Z,29.60
2023-04-09T16:53:40.135Z,30.10
2023-04-09T16:56:09.432Z,29.70
2023-04-09T16:58:39.116Z,33.90
2023-04-09T17:01:08.053Z,34.70
2023-04-09T17:03:36.747Z,33.70
2023-04-09T17:06:06.318Z,36.90
2023-04-09T17:12:14.751Z,39.00
2023-04-09T17:14:44.650Z,40.20
2023-04-09T17:17:13.194Z,40.90
2023-04-09T17:19:42.984Z,40.50
2023-04-09T17:22:13.708Z,40.90
2023-04-09T17:24:42.074Z,40.30
2023-04-09T17:27:11.368Z,43.10
2023-04-09T17:29:41.209Z,40.10
2023-04-09T17:32:09.686Z,46.00
2023-04-09T17:34:38.245Z,47.20
2023-04-09T17:37:07.434Z,41.80
2023-04-09T17:39:37.165Z,41.30
2023-04-09T17:42:06.767Z,43.60
2023-04-09T17:44:35.770Z,41.40
2023-04-09T17:47:05.925Z,40.60
2023-04-09T17:49:34.548Z,43.60
2023-04-09T17:52:03.254Z,46.30
2023-04-09T17:54:35.003Z,50.00
2023-04-09T17:57:04.861Z,46.10
2023-04-09T17:59:34.907Z,41.10
2023-04-09T18:02:04.438Z,46.30
2023-04-09T18:04:36.182Z,52.20
2023-04-09T18:07:05.343Z,51.30
2023-04-09T18:09:35.981Z,45.80
2023-04-09T18:12:04.614Z,46.30
2023-04-09T18:14:33.911Z,48.00
2023-04-09T18:17:02.698Z,58.10
2023-04-09T18:19:31.726Z,52.00
2023-04-09T18:22:02.380Z,48.20
2023-04-09T18:24:33.342Z,45.30
2023-04-09T18:27:03.040Z,51.20
2023-04-09T18:29:32.200Z,53.00
2023-04-09T18:32:01.276Z,49.10
2023-04-09T18:34:30.151Z,48.80
2023-04-09T18:36:58.746Z,42.00
2023-04-09T18:39:27.741Z,45.50
2023-04-09T18:41:57.849Z,48.20
2023-04-09T18:44:26.249Z,44.90
2023-04-09T18:46:55.162Z,44.70
2023-04-09T18:49:24.266Z,42.20
2023-04-09T18:51:53.110Z,47.50
2023-04-09T18:54:21.497Z,46.40
2023-04-09T18:56:50.511Z,40.60
2023-04-09T18:59:19.233Z,39.50
2023-04-09T19:01:48.204Z,43.90
2023-04-09T19:04:16.607Z,42.80
2023-04-09T19:06:49.334Z,44.30
2023-04-09T19:09:18.064Z,40.90
2023-04-09T19:11:49.377Z,45.60
2023-04-09T19:14:17.941Z,49.80
2023-04-09T19:16:46.426Z,50.40
2023-04-09T19:19:14.908Z,49.90
2023-04-09T19:21:44.123Z,50.40
2023-04-09T19:24:12.592Z,42.50
2023-04-09T19:26:41.264Z,50.40
2023-04-09T19:29:09.880Z,59.10
2023-04-09T19:31:38.586Z,67.00
2023-04-09T19:34:07.338Z,61.80
2023-04-09T19:36:36.216Z,65.00
2023-04-09T19:39:06.516Z,68.80
2023-04-09T19:41:35.033Z,75.70
2023-04-09T19:44:07.596Z,72.00
2023-04-09T19:46:36.095Z,68.70
2023-04-09T19:49:04.574Z,70.00
2023-04-09T19:51:34.664Z,66.10
2023-04-09T19:54:03.599Z,62.10
2023-04-09T19:56:33.044Z,64.30
2023-04-09T19:59:02.642Z,67.90
2023-04-09T20:01:32.781Z,61.10
2023-04-09T20:04:02.408Z,69.80
2023-04-09T20:06:31.219Z,63.40
2023-04-09T20:09:01.219Z,58.50
2023-04-09T20:11:29.750Z,55.80
2023-04-09T20:13:58.950Z,56.20
2023-04-09T20:16:27.407Z,56.70
2023-04-09T20:18:56.242Z,53.20
2023-04-09T20:21:25.598Z,48.80
2023-04-09T20:23:54.245Z,46.40
2023-04-09T20:26:22.930Z,51.00
2023-04-09T20:28:51.895Z,50.10
2023-04-09T20:31:20.536Z,50.50
2023-04-09T20:33:49.297Z,45.70
2023-04-09T20:36:19.581Z,55.60
2023-04-09T20:39:13.591Z,48.80
2023-04-09T20:41:42.196Z,55.40
2023-04-09T20:44:11.177Z,58.10
2023-04-09T20:46:39.652Z,61.10
2023-04-09T20:49:08.139Z,62.40
2023-04-09T20:51:37.225Z,61.10
2023-04-09T20:54:06.040Z,61.60
2023-04-09T20:56:34.813Z,64.00
2023-04-09T20:59:03.800Z,68.20
2023-04-09T21:01:32.480Z,62.50
2023-04-09T21:04:01.057Z,60.90
2023-04-09T21:06:29.649Z,63.00
2023-04-09T21:08:59.733Z,65.00
2023-04-09T21:11:30.908Z,66.70
2023-04-09T21:13:59.288Z,68.80
2023-04-09T21:16:30.088Z,64.50
2023-04-09T21:18:58.721Z,65.80
2023-04-09T21:21:29.972Z,65.90
2023-04-09T21:23:58.335Z,63.50
2023-04-09T21:26:28.110Z,56.90
2023-04-09T21:28:58.479Z,61.90
2023-04-09T21:31:26.978Z,65.40
2023-04-09T21:33:55.440Z,65.60
2023-04-09T21:36:26.584Z,60.40
2023-04-09T21:38:55.157Z,58.10
2023-04-09T21:41:24.070Z,58.70
2023-04-09T21:43:52.642Z,61.60
2023-04-09T21:46:21.980Z,59.20
2023-04-09T21:48:50.552Z,60.50
2023-04-09T21:51:19.286Z,57.80
2023-04-09T21:53:48.515Z,60.50
2023-04-09T21:56:16.899Z,59.90
2023-04-09T21:58:45.375Z,68.50
2023-04-09T22:01:26.247Z,63.60
2023-04-09T22:04:00.420Z,59.00
2023-04-09T22:06:29.698Z,65.30
2023-04-09T22:08:58.730Z,63.30
2023-04-09T22:11:28.711Z,62.40
2023-04-09T22:13:57.617Z,60.60
2023-04-09T22:16:26.570Z,61.60
2023-04-09T22:18:55.373Z,70.30
2023-04-09T22:21:24.139Z,64.40
2023-04-09T22:23:52.650Z,63.00
2023-04-09T22:26:22.321Z,65.30
2023-04-09T22:28:51.171Z,70.40
2023-04-09T22:31:20.206Z,61.20
2023-04-09T22:33:48.575Z,65.90
2023-04-09T22:36:17.074Z,62.80
2023-04-09T22:38:45.949Z,64.20
2023-04-09T22:41:16.268Z,67.20
2023-04-09T22:43:44.857Z,61.00
2023-04-09T22:46:13.267Z,69.90
2023-04-09T22:48:44.766Z,62.20
2023-04-09T22:51:14.278Z,63.90
2023-04-09T22:53:42.780Z,61.90
2023-04-09T22:56:11.386Z,59.40
2023-04-09T22:58:40.558Z,66.20
2023-04-09T23:01:09.153Z,62.70
2023-04-09T23:03:37.653Z,66.60
2023-04-09T23:06:06.858Z,64.60
2023-04-09T23:08:35.195Z,65.80
2023-04-09T23:11:05.509Z,62.90
2023-04-09T23:13:34.209Z,58.40
2023-04-09T23:16:07.494Z,59.60
2023-04-09T23:18:36.588Z,56.40
2023-04-09T23:21:09.165Z,57.60
2023-04-09T23:23:39.111Z,56.10
2023-04-09T23:26:07.837Z,60.70
2023-04-09T23:28:36.301Z,54.30
2023-04-09T23:31:05.724Z,54.00
2023-04-09T23:33:34.757Z,59.30
2023-04-09T23:36:03.325Z,53.30
2023-04-09T23:38:31.917Z,57.10
2023-04-09T23:41:00.698Z,53.60
2023-04-09T23:43:29.082Z,52.80
2023-04-09T23:45:57.656Z,54.60
2023-04-09T23:48:26.147Z,59.90
2023-04-09T23:50:54.615Z,57.80
2023-04-09T23:53:23.000Z,60.30
2023-04-09T23:55:52.923Z,62.20
2023-04-09T23:58:22.124Z,56.90
